Time;durP1;ratioP1;P1;durP2;ratioP2;P2;SDS_P1;SDS_P2;PMS_P1;PMS_P2;Temp;Humidity;BMP_temperature;BMP_pressure;BME280_temperature;BME280_humidity;BME280_pressure;Samples;Min_cycle;Max_cycle;Signal;HPM_P1;HPM_P2
2023/02/14 00:01:19;;;;;;;111.80;59.08;;;;;;;-3.20;100.00;94484.75;5085684;28;20116;-69
2023/02/14 00:03:46;;;;;;;103.40;57.33;;;;;;;-3.19;100.00;94483.88;5090834;28;20428;-69
2023/02/14 00:06:14;;;;;;;100.50;56.92;;;;;;;-3.23;100.00;94470.66;5091346;28;20090;-69
2023/02/14 00:08:43;;;;;;;100.85;58.30;;;;;;;-3.08;100.00;94493.25;5091952;28;20036;-69
2023/02/14 00:11:10;;;;;;;101.60;55.92;;;;;;;-3.02;100.00;94499.63;5091218;28;20101;-69
2023/02/14 00:13:37;;;;;;;96.35;54.00;;;;;;;-2.98;100.00;94490.97;5091338;28;20488;-69
2023/02/14 00:16:05;;;;;;;96.57;55.00;;;;;;;-2.95;100.00;94489.06;5091476;28;20052;-69
2023/02/14 00:21:16;;;;;;;91.03;52.85;;;;;;;-2.83;100.00;94500.09;5091338;28;20153;-69
2023/02/14 00:23:42;;;;;;;88.95;52.50;;;;;;;-2.75;100.00;94496.28;5091433;28;20125;-69
2023/02/14 00:26:13;;;;;;;93.97;50.33;;;;;;;-2.73;100.00;94490.25;5091054;28;20048;-69
2023/02/14 00:28:40;;;;;;;87.20;49.70;;;;;;;-2.72;100.00;94496.09;5090863;28;20044;-69
2023/02/14 00:31:08;;;;;;;80.55;45.83;;;;;;;-2.69;100.00;94488.34;5091119;28;20125;-69
2023/02/14 00:33:34;;;;;;;77.60;45.38;;;;;;;-2.67;100.00;94495.81;5091367;28;20044;-69
2023/02/14 00:36:03;;;;;;;79.38;43.90;;;;;;;-2.63;100.00;94487.16;5091063;28;20101;-69
2023/02/14 00:38:30;;;;;;;73.55;43.58;;;;;;;-2.62;100.00;94486.25;5091093;28;20055;-69
2023/02/14 00:40:57;;;;;;;73.85;42.63;;;;;;;-2.63;100.00;94475.41;5091192;28;20093;-69
2023/02/14 00:43:24;;;;;;;88.75;49.72;;;;;;;-2.48;100.00;94485.38;5090883;28;20184;-69
2023/02/14 00:45:50;;;;;;;76.78;45.72;;;;;;;-2.42;100.00;94480.78;5090632;28;20122;-69
2023/02/14 00:48:18;;;;;;;94.68;53.80;;;;;;;-2.38;100.00;94478.84;5090964;28;20109;-69
2023/02/14 00:50:47;;;;;;;86.03;50.80;;;;;;;-2.42;100.00;94473.22;5090513;28;20101;-69
2023/02/14 00:53:14;;;;;;;95.50;53.10;;;;;;;-2.66;100.00;94484.84;5090733;28;20090;-69
2023/02/14 00:55:41;;;;;;;62.38;37.15;;;;;;;-2.66;100.00;94474.78;5090902;28;20128;-69
2023/02/14 00:58:07;;;;;;;47.47;32.25;;;;;;;-2.52;100.00;94473.91;5090683;28;20100;-69
2023/02/14 01:00:34;;;;;;;92.25;52.67;;;;;;;-2.45;100.00;94470.91;5090419;28;20056;-69
2023/02/14 01:03:01;;;;;;;73.85;43.33;;;;;;;-2.52;100.00;94451.25;5090522;28;20542;-69
2023/02/14 01:05:29;;;;;;;66.70;39.60;;;;;;;-2.39;100.00;94454.59;5090795;28;20048;-69
2023/02/14 01:07:56;;;;;;;63.28;38.80;;;;;;;-2.35;100.00;94465.28;5091202;28;20055;-69
2023/02/14 01:10:22;;;;;;;64.72;37.92;;;;;;;-2.43;100.00;94464.06;5090111;28;20040;-69
2023/02/14 01:12:49;;;;;;;42.22;27.70;;;;;;;-2.09;100.00;94462.78;5091059;28;20052;-69
2023/02/14 01:15:16;;;;;;;41.45;28.23;;;;;;;-1.77;100.00;94462.34;5090396;28;20044;-69
2023/02/14 01:17:42;;;;;;;42.53;29.23;;;;;;;-1.58;100.00;94459.38;5090917;28;20043;-69
2023/02/14 01:20:11;;;;;;;40.95;27.30;;;;;;;-1.46;100.00;94446.84;5090607;28;20105;-69
2023/02/14 01:22:39;;;;;;;41.60;27.15;;;;;;;-1.30;100.00;94457.50;5090781;28;20450;-69
2023/02/14 01:25:06;;;;;;;40.33;27.80;;;;;;;-1.19;100.00;94454.25;5090581;28;20100;-69
2023/02/14 01:27:33;;;;;;;39.80;25.80;;;;;;;-1.11;100.00;94446.94;5090559;28;20048;-69
2023/02/14 01:30:00;;;;;;;40.13;27.10;;;;;;;-1.39;100.00;94385.84;5090237;28;20097;-70
2023/02/14 01:32:30;;;;;;;37.22;26.45;;;;;;;-0.96;100.00;94439.22;5090418;28;20538;-70
2023/02/14 01:34:56;;;;;;;40.47;26.23;;;;;;;-0.91;100.00;94438.88;5090374;28;20048;-69
2023/02/14 01:37:23;;;;;;;36.90;25.40;;;;;;;-0.86;100.00;94435.13;5090546;28;20052;-69
2023/02/14 01:39:51;;;;;;;41.00;27.52;;;;;;;-0.73;100.00;94430.03;5089452;28;20056;-69
2023/02/14 01:42:18;;;;;;;40.13;26.33;;;;;;;-0.67;100.00;94431.28;5090131;28;20048;-69
2023/02/14 01:45:08;;;;;;;38.78;27.02;;;;;;;-0.62;100.00;94436.00;5089883;28;20787;-69
2023/02/14 01:47:39;;;;;;;37.53;24.65;;;;;;;-0.61;100.00;94432.59;5086475;28;20048;-69
2023/02/14 01:50:09;;;;;;;41.33;25.55;;;;;;;-0.57;100.00;94423.84;5089828;28;20048;-69
2023/02/14 01:52:40;;;;;;;38.60;27.13;;;;;;;-0.48;100.00;94422.38;5090267;28;20096;-69
2023/02/14 01:55:12;;;;;;;37.50;26.63;;;;;;;-0.43;100.00;94420.34;5089750;28;20088;-69
2023/02/14 01:57:43;;;;;;;38.25;26.02;;;;;;;-0.53;100.00;94412.63;5089879;28;20048;-69
2023/02/14 02:02:59;;;;;;;40.58;26.95;;;;;;;-0.42;100.00;94405.06;5090036;28;20055;-69
2023/02/14 02:05:27;;;;;;;37.05;27.17;;;;;;;-0.45;100.00;94415.41;5089601;28;20081;-69
2023/02/14 02:07:58;;;;;;;37.38;24.10;;;;;;;-0.43;100.00;94410.22;5083782;28;20036;-70
2023/02/14 02:10:26;;;;;;;37.17;25.52;;;;;;;-0.48;100.00;94397.97;5083111;28;20097;-70
2023/02/14 02:12:54;;;;;;;38.55;26.02;;;;;;;-0.50;100.00;94417.47;5089578;28;20085;-70
2023/02/14 02:15:26;;;;;;;37.08;25.95;;;;;;;-0.45;100.00;94410.38;5089599;28;20094;-69
2023/02/14 02:18:02;;;;;;;36.03;25.50;;;;;;;-0.36;100.00;94405.53;5089552;28;20052;-69
2023/02/14 02:20:54;;;;;;;39.88;27.05;;;;;;;-0.35;100.00;94402.91;5072527;28;20045;-70
2023/02/14 02:23:53;;;;;;;34.45;23.23;;;;;;;-0.21;100.00;94401.09;5083857;28;20048;-70
2023/02/14 02:27:00;;;;;;;37.58;26.08;;;;;;;-0.21;100.00;94404.41;5089296;28;20062;-70
2023/02/14 02:30:12;;;;;;;37.70;25.95;;;;;;;-0.14;100.00;94403.03;5070010;28;20082;-70
2023/02/14 02:33:07;;;;;;;36.72;24.48;;;;;;;-0.10;100.00;94406.13;5089713;28;20090;-70
2023/02/14 02:35:50;;;;;;;38.85;26.05;;;;;;;-0.13;100.00;94393.75;5089473;28;20101;-70
2023/02/14 02:38:32;;;;;;;34.63;25.45;;;;;;;-0.17;100.00;94390.66;5089299;28;20085;-70
2023/02/14 02:41:04;;;;;;;40.65;25.77;;;;;;;-0.16;100.00;94378.81;5089526;28;20052;-70
2023/02/14 02:43:41;;;;;;;39.83;26.95;;;;;;;-0.43;100.00;94340.38;5089375;28;20446;-70
2023/02/14 02:49:12;;;;;;;37.63;25.90;;;;;;;-0.27;100.00;94360.22;5089250;28;20063;-70
2023/02/14 02:54:36;;;;;;;50.33;32.10;;;;;;;-0.37;100.00;94364.34;5088991;28;20964;-70
2023/02/14 02:57:07;;;;;;;41.28;28.92;;;;;;;-0.44;100.00;94371.59;5089289;28;20052;-70
2023/02/14 02:59:38;;;;;;;38.40;27.40;;;;;;;-0.47;100.00;94373.53;5089006;28;20089;-70
2023/02/14 03:02:07;;;;;;;49.83;29.63;;;;;;;-0.47;100.00;94384.41;5088958;28;20086;-70
2023/02/14 03:04:51;;;;;;;50.75;29.85;;;;;;;-0.60;100.00;94368.56;5088896;28;20044;-69
2023/02/14 03:07:35;;;;;;;37.50;25.42;;;;;;;-0.49;100.00;94371.13;5088837;28;20492;-69
2023/02/14 03:10:07;;;;;;;38.67;26.90;;;;;;;-0.51;100.00;94367.09;5088980;28;20040;-70
2023/02/14 03:13:16;;;;;;;41.25;26.67;;;;;;;-0.67;100.00;94370.72;5088844;28;20557;-69
2023/02/14 03:16:01;;;;;;;47.58;29.88;;;;;;;-0.71;100.00;94370.16;5088753;28;20492;-69
2023/02/14 03:21:33;;;;;;;65.90;36.35;;;;;;;-0.77;100.00;94363.03;5089109;28;20054;-70
2023/02/14 03:24:08;;;;;;;48.70;29.67;;;;;;;-0.63;100.00;94368.78;5089001;28;20040;-69
2023/02/14 03:26:39;;;;;;;50.95;30.52;;;;;;;-0.62;100.00;94371.19;5088996;28;20048;-70
2023/02/14 03:29:14;;;;;;;85.35;42.95;;;;;;;-0.56;100.00;94355.59;5088709;28;20428;-70
2023/02/14 03:31:52;;;;;;;64.20;32.97;;;;;;;-0.55;100.00;94349.63;5088857;28;20052;-70
2023/02/14 03:34:26;;;;;;;55.30;29.98;;;;;;;-0.49;100.00;94352.63;5088755;28;20048;-69
2023/02/14 03:36:58;;;;;;;42.92;27.33;;;;;;;-0.44;100.00;94348.03;5088266;28;20496;-70
2023/02/14 03:39:32;;;;;;;45.22;28.88;;;;;;;-0.52;100.00;94342.78;5088960;28;20106;-70
2023/02/14 03:42:05;;;;;;;64.38;33.15;;;;;;;-0.54;100.00;94341.16;5088393;28;20085;-70
2023/02/14 03:44:36;;;;;;;45.67;28.60;;;;;;;-0.54;100.00;94337.84;5074785;28;20103;-70
2023/02/14 03:47:06;;;;;;;67.07;34.15;;;;;;;-0.42;100.00;94348.72;5088527;28;20048;-70
2023/02/14 03:49:39;;;;;;;171.38;67.07;;;;;;;-0.37;100.00;94348.41;5088052;28;20044;-70
2023/02/14 03:52:10;;;;;;;66.45;36.72;;;;;;;-0.43;100.00;94337.84;5088431;28;20044;-70
2023/02/14 03:54:38;;;;;;;49.38;29.58;;;;;;;-0.43;100.00;94344.59;5088506;28;20553;-70
2023/02/14 03:57:13;;;;;;;48.63;29.08;;;;;;;-0.42;100.00;94339.44;5088658;28;20044;-70
2023/02/14 03:59:42;;;;;;;74.22;41.15;;;;;;;-0.54;100.00;94343.66;5088294;28;20478;-70
2023/02/14 04:02:12;;;;;;;52.17;30.33;;;;;;;-0.56;100.00;94335.41;5089354;28;20085;-70
2023/02/14 04:04:42;;;;;;;120.68;60.15;;;;;;;-0.54;100.00;94340.34;5092112;28;20484;-70
2023/02/14 04:07:11;;;;;;;45.72;28.30;;;;;;;-0.58;100.00;94321.31;5092203;28;20052;-69
2023/02/14 04:09:39;;;;;;;234.95;97.07;;;;;;;-0.61;100.00;94332.44;5092417;28;20438;-70
2023/02/14 04:12:07;;;;;;;149.95;58.17;;;;;;;-0.56;100.00;94321.97;5091799;28;20066;-70
2023/02/14 04:14:33;;;;;;;37.17;23.52;;;;;;;-0.67;100.00;94327.84;5091871;28;20044;-70
2023/02/14 04:19:44;;;;;;;61.97;36.15;;;;;;;-0.66;100.00;94323.59;5092057;28;20054;-70
2023/02/14 04:22:11;;;;;;;53.60;32.20;;;;;;;-0.71;100.00;94327.25;5091560;28;20048;-69
2023/02/14 04:24:39;;;;;;;64.07;32.83;;;;;;;-0.61;100.00;94324.06;5091392;28;20051;-69
2023/02/14 04:27:12;;;;;;;79.22;40.85;;;;;;;-0.56;100.00;94320.28;5092018;28;20044;-69
2023/02/14 04:29:40;;;;;;;43.63;27.17;;;;;;;-0.52;100.00;94320.06;5091889;28;20048;-69
2023/02/14 04:32:09;;;;;;;42.38;26.98;;;;;;;-0.52;100.00;94322.59;5091803;28;20097;-69
2023/02/14 04:34:35;;;;;;;64.38;32.63;;;;;;;-0.50;100.00;94321.56;5091418;28;20515;-69
2023/02/14 04:37:02;;;;;;;58.80;32.85;;;;;;;-0.54;100.00;94323.47;5090958;28;20044;-69
2023/02/14 04:39:29;;;;;;;50.85;30.35;;;;;;;-0.50;100.00;94319.03;5091782;28;20102;-70
2023/02/14 04:41:57;;;;;;;58.75;33.20;;;;;;;-0.61;100.00;94317.28;5091101;28;20136;-70
2023/02/14 04:44:24;;;;;;;81.30;41.72;;;;;;;-0.51;100.00;94317.41;5091819;28;20050;-70
2023/02/14 04:46:51;;;;;;;44.70;26.50;;;;;;;-0.52;100.00;94325.91;5090733;28;20040;-70
2023/02/14 04:49:18;;;;;;;57.92;32.45;;;;;;;-0.43;100.00;94317.66;5077073;28;20412;-70
2023/02/14 04:51:44;;;;;;;37.20;23.02;;;;;;;-0.45;100.00;94314.44;5087020;28;20438;-70
2023/02/14 04:54:11;;;;;;;50.78;29.15;;;;;;;-0.40;100.00;94314.09;5090692;28;20427;-70
2023/02/14 04:56:38;;;;;;;37.08;23.88;;;;;;;-0.50;100.00;94291.28;5090346;28;20044;-70
2023/02/14 04:59:06;;;;;;;57.90;31.42;;;;;;;-0.37;100.00;94296.19;5090931;28;20089;-70
2023/02/14 05:01:33;;;;;;;35.25;25.10;;;;;;;-0.46;100.00;94299.41;5090520;28;20048;-70
2023/02/14 05:04:00;;;;;;;42.78;27.77;;;;;;;-0.42;100.00;94296.53;5090785;28;20044;-70
2023/02/14 05:06:27;;;;;;;50.70;30.73;;;;;;;-0.41;100.00;94299.88;5090981;28;20466;-70
2023/02/14 05:09:12;;;;;;;45.22;27.20;;;;;;;-0.28;100.00;94298.00;5090690;28;20407;-70
2023/02/14 05:11:39;;;;;;;48.28;29.20;;;;;;;-0.27;100.00;94299.63;5090733;28;20044;-70
2023/02/14 05:14:07;;;;;;;63.00;35.45;;;;;;;-0.22;100.00;94299.28;5089805;28;20040;-70
2023/02/14 05:16:34;;;;;;;47.72;29.23;;;;;;;-0.31;100.00;94293.22;5090773;28;20051;-70
2023/02/14 05:19:01;;;;;;;38.70;25.42;;;;;;;-0.27;100.00;94289.50;5090228;28;20450;-70
2023/02/14 05:21:31;;;;;;;97.78;49.88;;;;;;;-0.17;100.00;94309.03;5090815;28;20105;-70
2023/02/14 05:23:58;;;;;;;50.67;31.30;;;;;;;-0.24;100.00;94300.31;5087946;28;20134;-70
2023/02/14 05:26:25;;;;;;;52.67;33.50;;;;;;;-0.33;100.00;94307.66;5079862;28;20565;-70
2023/02/14 05:28:52;;;;;;;44.30;28.92;;;;;;;-0.39;100.00;94297.22;5090147;28;20040;-70
2023/02/14 05:31:20;;;;;;;48.45;31.23;;;;;;;-0.34;100.00;94301.00;5090887;28;20473;-70
2023/02/14 05:33:47;;;;;;;47.38;30.33;;;;;;;-0.26;100.00;94300.44;5090486;28;20404;-70
2023/02/14 05:36:14;;;;;;;35.55;24.52;;;;;;;-0.22;100.00;94295.94;5090574;28;20048;-70
2023/02/14 05:38:40;;;;;;;42.97;27.45;;;;;;;-0.26;100.00;94308.00;5090083;28;20037;-70
2023/02/14 05:41:07;;;;;;;38.17;26.63;;;;;;;-0.30;100.00;94309.97;5090207;28;20105;-70
2023/02/14 05:43:34;;;;;;;47.53;31.27;;;;;;;-0.29;100.00;94306.50;5089384;28;20572;-70
2023/02/14 05:46:00;;;;;;;48.63;32.05;;;;;;;-0.23;100.00;94310.28;5090403;28;20125;-70
2023/02/14 05:48:29;;;;;;;37.08;25.02;;;;;;;-0.23;100.00;94314.53;5089869;28;20090;-70
2023/02/14 05:50:55;;;;;;;38.83;24.95;;;;;;;-0.22;100.00;94306.03;5089955;28;20168;-70
2023/02/14 05:53:22;;;;;;;42.10;26.83;;;;;;;-0.18;100.00;94317.53;5090152;28;20545;-70
2023/02/14 05:55:49;;;;;;;39.00;24.80;;;;;;;-0.27;100.00;94307.19;5089871;28;20093;-71
2023/02/14 05:58:15;;;;;;;41.33;25.58;;;;;;;-0.27;100.00;94317.28;5089859;28;20571;-70
2023/02/14 06:00:42;;;;;;;37.13;24.48;;;;;;;-0.12;100.00;94311.19;5089556;28;20102;-70
2023/02/14 06:03:09;;;;;;;34.65;23.13;;;;;;;-0.32;100.00;94305.94;5063526;28;20121;-71
2023/02/14 06:05:37;;;;;;;35.63;24.55;;;;;;;-0.23;100.00;94305.22;5089813;28;20040;-71
2023/02/14 06:08:03;;;;;;;34.58;22.20;;;;;;;-0.33;100.00;94311.91;5090043;28;20451;-71
2023/02/14 06:10:30;;;;;;;31.23;21.48;;;;;;;-0.40;100.00;94306.53;5089775;28;20463;-70
2023/02/14 06:12:57;;;;;;;33.28;22.33;;;;;;;-0.32;100.00;94305.94;5090036;28;20537;-70
2023/02/14 06:15:24;;;;;;;45.85;29.45;;;;;;;-0.20;100.00;94310.06;5089768;28;20100;-71
2023/02/14 06:17:52;;;;;;;39.92;27.55;;;;;;;-0.12;100.00;94309.50;5085282;28;20105;-71
2023/02/14 06:20:20;;;;;;;36.58;23.95;;;;;;;0.05;100.00;94313.25;5088155;28;20040;-71
2023/02/14 06:22:48;;;;;;;44.45;28.15;;;;;;;0.13;100.00;94313.47;5089536;28;20094;-71
2023/02/14 06:25:15;;;;;;;43.70;28.50;;;;;;;0.18;100.00;94319.91;5088904;28;20044;-71
2023/02/14 06:27:42;;;;;;;38.28;25.75;;;;;;;0.28;100.00;94312.41;5089270;28;20127;-71
2023/02/14 06:30:10;;;;;;;41.50;27.73;;;;;;;0.29;100.00;94309.75;5089311;28;20047;-71
2023/02/14 06:32:36;;;;;;;44.65;30.65;;;;;;;0.42;100.00;94317.19;5089568;28;20094;-71
2023/02/14 06:35:03;;;;;;;47.92;30.42;;;;;;;0.42;100.00;94317.19;5088763;28;20047;-71
2023/02/14 06:37:30;;;;;;;49.28;30.90;;;;;;;0.52;100.00;94315.53;5089346;28;20533;-71
2023/02/14 06:39:58;;;;;;;41.58;28.25;;;;;;;0.45;100.00;94316.94;5089134;28;20052;-71
2023/02/14 06:42:25;;;;;;;42.40;29.30;;;;;;;0.50;100.00;94319.09;5089200;28;20083;-71
2023/02/14 06:44:52;;;;;;;48.60;31.48;;;;;;;0.43;100.00;94315.44;5088627;28;20043;-71
2023/02/14 06:47:19;;;;;;;43.20;29.20;;;;;;;0.42;100.00;94314.66;5089183;28;20048;-71
2023/02/14 06:49:45;;;;;;;42.83;29.00;;;;;;;0.49;100.00;94322.56;5089023;28;20466;-70
2023/02/14 06:52:12;;;;;;;42.33;28.00;;;;;;;0.39;100.00;94317.41;5088856;28;20109;-71
2023/02/14 06:54:39;;;;;;;42.67;28.85;;;;;;;0.41;100.00;94314.78;5088704;28;20389;-70
2023/02/14 06:57:07;;;;;;;45.17;29.73;;;;;;;0.39;100.00;94315.72;5089094;28;20089;-71
2023/02/14 06:59:33;;;;;;;36.05;24.90;;;;;;;0.45;100.00;94304.31;5088618;28;20446;-70
2023/02/14 07:02:00;;;;;;;43.78;28.08;;;;;;;0.56;100.00;94302.66;5088917;28;20093;-70
2023/02/14 07:04:27;;;;;;;49.20;29.67;;;;;;;0.54;100.00;94300.25;5088808;28;20048;-70
2023/02/14 07:06:53;;;;;;;35.70;23.20;;;;;;;0.33;100.00;94288.34;5088491;28;20093;-70
2023/02/14 07:09:20;;;;;;;46.25;29.40;;;;;;;0.49;100.00;94293.03;5088516;28;20052;-70
2023/02/14 07:11:47;;;;;;;43.83;27.85;;;;;;;0.52;100.00;94300.34;5089033;28;20048;-70
2023/02/14 07:14:15;;;;;;;42.50;27.33;;;;;;;0.61;100.00;94298.84;5073716;28;20070;-70
2023/02/14 07:16:41;;;;;;;44.35;26.25;;;;;;;0.64;100.00;94293.53;5079862;28;20094;-70
2023/02/14 07:19:08;;;;;;;44.75;26.77;;;;;;;0.65;100.00;94287.56;5088617;28;20048;-70
2023/02/14 07:21:35;;;;;;;33.95;22.92;;;;;;;0.52;100.00;94292.00;5089180;28;20059;-70
2023/02/14 07:24:01;;;;;;;34.20;22.45;;;;;;;0.36;100.00;94292.38;5088700;28;20040;-70
2023/02/14 07:26:28;;;;;;;36.03;23.85;;;;;;;0.39;100.00;94292.97;5088766;28;20101;-70
2023/02/14 07:28:55;;;;;;;31.98;22.10;;;;;;;0.41;100.00;94305.47;5088699;28;20040;-71
2023/02/14 07:31:23;;;;;;;45.28;29.30;;;;;;;0.37;100.00;94297.31;5088878;28;20098;-70
2023/02/14 07:33:50;;;;;;;39.28;26.08;;;;;;;0.30;100.00;94292.84;5087919;28;20475;-70
2023/02/14 07:36:16;;;;;;;41.20;27.65;;;;;;;0.43;100.00;94295.22;5089005;28;20056;-70
2023/02/14 07:38:43;;;;;;;31.88;20.98;;;;;;;0.37;100.00;94294.00;5091474;28;20114;-70
2023/02/14 07:41:10;;;;;;;36.17;23.58;;;;;;;0.42;100.00;94294.44;5092424;28;20052;-70
2023/02/14 07:43:38;;;;;;;33.53;22.05;;;;;;;0.38;100.00;94291.34;5092531;28;20052;-70
2023/02/14 07:46:05;;;;;;;38.75;23.42;;;;;;;0.39;100.00;94289.63;5092336;28;20048;-70
2023/02/14 07:48:33;;;;;;;38.00;25.48;;;;;;;0.44;100.00;94285.00;5092458;28;20089;-70
2023/02/14 07:51:00;;;;;;;41.20;27.40;;;;;;;0.45;100.00;94284.06;5092140;28;20093;-70
2023/02/14 07:53:27;;;;;;;41.35;26.08;;;;;;;0.53;100.00;94291.88;5092576;28;20382;-70
2023/02/14 07:55:53;;;;;;;42.38;29.45;;;;;;;0.33;100.00;94295.16;5091999;28;20401;-70
2023/02/14 07:58:20;;;;;;;37.65;25.42;;;;;;;0.27;100.00;94293.91;5079980;28;20101;-70
2023/02/14 08:00:47;;;;;;;42.67;29.20;;;;;;;0.34;100.00;94300.09;5092212;28;20488;-70
2023/02/14 08:03:14;;;;;;;47.75;28.27;;;;;;;0.15;100.00;94290.63;5092210;28;20052;-71
2023/02/14 08:05:42;;;;;;;32.53;22.23;;;;;;;0.20;100.00;94303.69;5091481;28;20116;-70
2023/02/14 08:08:09;;;;;;;33.13;22.15;;;;;;;0.17;100.00;94301.41;5092342;28;20526;-70
2023/02/14 08:10:35;;;;;;;34.28;22.15;;;;;;;0.21;100.00;94305.28;5091633;28;20492;-71
2023/02/14 08:13:02;;;;;;;28.67;19.70;;;;;;;0.20;100.00;94313.00;5092293;28;20342;-71
2023/02/14 08:18:16;;;;;;;30.48;19.48;;;;;;;0.16;100.00;94311.63;5091246;28;20559;-70
2023/02/14 08:20:47;;;;;;;27.80;17.88;;;;;;;0.10;100.00;94310.38;5091659;28;20584;-70
2023/02/14 08:23:14;;;;;;;28.90;18.50;;;;;;;0.02;100.00;94285.69;5091929;28;20101;-71
2023/02/14 08:25:41;;;;;;;26.65;18.65;;;;;;;0.11;100.00;94307.75;5091760;28;20035;-71
2023/02/14 08:28:07;;;;;;;26.08;17.08;;;;;;;0.11;100.00;94310.25;5091805;28;20388;-70
2023/02/14 08:30:36;;;;;;;24.55;16.92;;;;;;;-0.08;100.00;94278.03;5089072;28;20044;-70
2023/02/14 08:33:03;;;;;;;29.30;18.40;;;;;;;0.12;100.00;94309.34;5091782;28;20054;-70
2023/02/14 08:35:30;;;;;;;29.08;19.33;;;;;;;0.16;100.00;94312.44;5080555;28;20044;-70
2023/02/14 08:37:58;;;;;;;30.55;20.30;;;;;;;0.17;100.00;94318.25;5084278;28;20044;-70
2023/02/14 08:40:25;;;;;;;30.83;17.63;;;;;;;0.17;100.00;94310.69;5091718;28;20389;-70
2023/02/14 08:42:51;;;;;;;27.30;19.05;;;;;;;0.16;100.00;94314.13;5090830;28;20048;-70
2023/02/14 08:45:18;;;;;;;27.23;18.15;;;;;;;0.15;100.00;94312.53;5091513;28;20102;-70
2023/02/14 08:47:45;;;;;;;23.10;15.95;;;;;;;0.13;100.00;94313.47;5090546;28;20102;-70
2023/02/14 08:50:15;;;;;;;28.58;17.00;;;;;;;0.06;100.00;94312.34;5091378;28;20121;-70
2023/02/14 08:52:43;;;;;;;29.65;18.63;;;;;;;0.15;100.00;94320.94;5091239;28;20044;-70
2023/02/14 08:55:12;;;;;;;24.27;15.90;;;;;;;0.12;100.00;94327.03;5091249;28;20390;-70
2023/02/14 08:57:39;;;;;;;25.13;17.13;;;;;;;0.11;100.00;94329.66;5090710;28;20048;-70
2023/02/14 09:00:08;;;;;;;26.98;17.48;;;;;;;0.17;100.00;94321.59;5090701;28;20047;-71
2023/02/14 09:02:35;;;;;;;34.78;22.73;;;;;;;0.20;100.00;94318.03;5086324;28;20052;-70
2023/02/14 09:05:02;;;;;;;31.98;21.67;;;;;;;0.09;100.00;94317.13;5091341;28;20040;-69
2023/02/14 09:07:33;;;;;;;29.15;19.42;;;;;;;0.11;100.00;94324.59;5090345;28;20094;-69
2023/02/14 09:09:59;;;;;;;28.20;18.55;;;;;;;0.06;100.00;94317.41;5090641;28;20048;-70
2023/02/14 09:12:27;;;;;;;27.38;17.83;;;;;;;0.26;100.00;94320.09;5090642;28;20125;-69
2023/02/14 09:14:54;;;;;;;26.58;18.20;;;;;;;0.18;100.00;94323.22;5087575;28;20066;-69
2023/02/14 09:17:21;;;;;;;24.77;16.52;;;;;;;0.24;100.00;94324.47;5087544;28;20500;-69
2023/02/14 09:19:47;;;;;;;30.08;19.17;;;;;;;0.20;100.00;94323.09;5090260;28;20044;-69
2023/02/14 09:22:14;;;;;;;27.95;17.45;;;;;;;0.19;100.00;94324.03;5090073;28;20489;-69
2023/02/14 09:24:41;;;;;;;24.15;15.80;;;;;;;0.23;100.00;94313.56;5090464;28;20044;-69
2023/02/14 09:27:08;;;;;;;23.80;16.67;;;;;;;0.24;100.00;94309.31;5089686;28;20622;-69
2023/02/14 09:29:36;;;;;;;28.48;17.85;;;;;;;0.25;100.00;94305.84;5090111;28;20044;-69
2023/02/14 09:32:03;;;;;;;25.73;16.65;;;;;;;0.30;100.00;94302.97;5087457;28;20044;-69
2023/02/14 09:34:32;;;;;;;26.50;17.13;;;;;;;0.26;100.00;94300.69;5090250;28;20081;-69
2023/02/14 09:39:43;;;;;;;25.70;15.73;;;;;;;0.25;100.00;94310.91;5086994;28;20192;-69
2023/02/14 09:42:22;;;;;;;28.58;18.98;;;;;;;0.31;100.00;94309.63;5086503;28;20048;-69
2023/02/14 09:44:53;;;;;;;27.88;17.27;;;;;;;0.24;100.00;94299.19;5088572;28;20447;-69
2023/02/14 09:47:24;;;;;;;25.42;16.92;;;;;;;0.20;100.00;94303.69;5090362;28;20040;-69
2023/02/14 09:49:52;;;;;;;30.67;19.52;;;;;;;0.08;100.00;94292.00;5090114;28;20052;-69
2023/02/14 09:52:22;;;;;;;28.35;19.10;;;;;;;0.09;100.00;94286.81;5090298;28;20059;-69
2023/02/14 09:54:56;;;;;;;24.23;16.00;;;;;;;0.09;100.00;94298.66;5090489;28;20488;-69
2023/02/14 09:57:31;;;;;;;25.33;16.60;;;;;;;-0.03;100.00;94285.25;5090267;28;20423;-68
2023/02/14 10:00:11;;;;;;;27.73;18.38;;;;;;;-0.12;100.00;94258.97;5088918;28;20087;-68
2023/02/14 10:02:46;;;;;;;27.13;17.50;;;;;;;0.14;100.00;94289.00;5089389;28;20055;-69
2023/02/14 10:05:16;;;;;;;25.92;16.58;;;;;;;0.11;100.00;94294.28;5089550;28;20044;-68
2023/02/14 10:07:57;;;;;;;25.42;17.35;;;;;;;-0.21;100.00;94257.16;5089257;28;20052;-69
2023/02/14 10:10:31;;;;;;;25.70;16.08;;;;;;;0.04;100.00;94295.69;5085992;28;20533;-69
2023/02/14 10:13:05;;;;;;;25.90;16.88;;;;;;;0.07;100.00;94287.84;5086162;28;20048;-68
2023/02/14 10:15:39;;;;;;;26.35;16.45;;;;;;;-0.03;100.00;94265.84;5089612;28;20102;-69
2023/02/14 10:18:12;;;;;;;26.00;17.08;;;;;;;0.04;100.00;94281.31;5089982;28;20047;-69
2023/02/14 10:20:43;;;;;;;26.55;16.80;;;;;;;0.05;100.00;94266.97;5089356;28;20048;-68
2023/02/14 10:23:24;;;;;;;27.30;18.92;;;;;;;0.08;100.00;94266.72;5089854;28;20148;-69
2023/02/14 10:25:57;;;;;;;25.65;16.67;;;;;;;0.08;100.00;94272.59;5082641;28;20040;-69
2023/02/14 10:28:30;;;;;;;24.38;16.13;;;;;;;0.09;100.00;94278.47;5088817;28;20040;-70
2023/02/14 10:31:16;;;;;;;30.08;19.23;;;;;;;0.17;100.00;94280.38;5088760;28;20130;-70
2023/02/14 10:33:49;;;;;;;26.88;17.15;;;;;;;0.17;100.00;94270.25;5089408;28;20062;-69
2023/02/14 10:36:26;;;;;;;29.30;18.60;;;;;;;0.07;100.00;94267.66;5088543;28;20044;-69
2023/02/14 10:39:06;;;;;;;29.17;17.38;;;;;;;0.01;100.00;94275.72;5089171;28;20431;-69
2023/02/14 10:41:44;;;;;;;28.92;18.17;;;;;;;0.14;100.00;94271.31;5089012;28;20446;-69
2023/02/14 10:44:27;;;;;;;28.05;17.25;;;;;;;0.09;100.00;94275.94;5083818;28;20105;-69
2023/02/14 10:47:02;;;;;;;25.55;17.33;;;;;;;0.07;100.00;94267.66;5089385;28;20044;-69
2023/02/14 10:49:41;;;;;;;29.80;18.67;;;;;;;0.15;100.00;94272.94;5089099;28;20479;-69
2023/02/14 10:52:15;;;;;;;27.42;18.13;;;;;;;0.21;100.00;94272.44;5088810;28;20500;-69
2023/02/14 10:54:45;;;;;;;25.27;16.58;;;;;;;0.20;100.00;94270.03;5088982;28;20060;-69
2023/02/14 10:57:16;;;;;;;27.20;18.85;;;;;;;0.24;100.00;94266.34;5063595;28;20056;-69
2023/02/14 10:59:50;;;;;;;28.67;17.85;;;;;;;0.24;100.00;94272.19;5075054;28;20064;-69
2023/02/14 11:02:24;;;;;;;24.80;16.77;;;;;;;0.27;100.00;94266.09;5084193;28;20105;-69
2023/02/14 11:04:52;;;;;;;23.73;16.30;;;;;;;0.19;100.00;94263.38;5080587;28;20555;-69
2023/02/14 11:07:21;;;;;;;25.23;16.33;;;;;;;0.23;100.00;94270.59;5087096;28;20504;-69
2023/02/14 11:09:48;;;;;;;27.25;17.02;;;;;;;0.25;100.00;94256.13;5089093;28;20048;-69
2023/02/14 11:12:34;;;;;;;24.45;16.73;;;;;;;0.39;100.00;94261.81;5089999;28;20047;-69
2023/02/14 11:15:19;;;;;;;22.67;15.20;;;;;;;0.36;100.00;94250.22;5093379;28;20412;-69
2023/02/14 11:17:47;;;;;;;23.00;15.43;;;;;;;0.36;100.00;94250.22;5092742;28;20040;-69
2023/02/14 11:20:26;;;;;;;26.13;17.73;;;;;;;0.46;100.00;94249.50;5093234;28;20056;-69
2023/02/14 11:22:53;;;;;;;21.55;14.95;;;;;;;0.39;100.00;94244.13;5092821;28;20048;-69
2023/02/14 11:25:22;;;;;;;25.75;16.52;;;;;;;0.45;100.00;94245.34;5085053;28;20045;-69
2023/02/14 11:27:51;;;;;;;19.98;14.13;;;;;;;0.39;100.00;94241.59;5080326;28;20040;-69
2023/02/14 11:30:22;;;;;;;22.17;15.63;;;;;;;0.37;100.00;94253.56;5083359;28;20059;-69
2023/02/14 11:32:54;;;;;;;23.77;15.55;;;;;;;0.35;100.00;94238.50;5092600;28;20102;-69
2023/02/14 11:35:25;;;;;;;21.23;14.70;;;;;;;0.43;100.00;94242.16;5073708;28;20040;-69
2023/02/14 11:37:54;;;;;;;20.17;13.38;;;;;;;0.30;100.00;94247.38;5074914;28;20159;-69
2023/02/14 11:40:27;;;;;;;25.80;16.55;;;;;;;0.29;100.00;94244.06;5087175;28;20048;-69
2023/02/14 11:42:54;;;;;;;29.23;19.38;;;;;;;0.37;100.00;94238.41;5092279;28;20074;-69
2023/02/14 11:45:31;;;;;;;20.50;14.50;;;;;;;0.28;100.00;94242.47;5084587;28;20048;-69
2023/02/14 11:48:16;;;;;;;19.67;13.80;;;;;;;0.31;100.00;94244.72;5080982;28;20045;-69